createdAt,value
2018-03-19T00:01:27.696Z,98020.20
2018-03-19T00:03:55.846Z,98017.95
2018-03-19T00:06:23.988Z,98013.75
2018-03-19T00:08:52.115Z,98021.82
2018-03-19T00:11:20.226Z,98035.28
2018-03-19T00:13:48.378Z,98020.55
2018-03-19T00:16:16.565Z,98011.53
2018-03-19T00:18:44.705Z,98015.80
2018-03-19T00:21:12.855Z,98017.19
2018-03-19T00:23:40.999Z,98013.47
2018-03-19T00:26:09.156Z,98011.42
2018-03-19T00:28:37.271Z,98017.86
2018-03-19T00:31:05.476Z,98008.27
2018-03-19T00:33:33.696Z,98010.43
2018-03-19T00:36:01.878Z,98013.13
2018-03-19T00:38:30.025Z,98006.72
2018-03-19T00:40:58.261Z,98008.47
2018-03-19T00:43:26.482Z,98009.48
2018-03-19T00:45:54.643Z,98007.68
2018-03-19T00:48:22.784Z,98014.01
2018-03-19T00:50:51.783Z,98014.76
2018-03-19T00:53:19.966Z,98020.64
2018-03-19T00:55:48.112Z,98008.16
2018-03-19T00:58:16.260Z,98013.05
2018-03-19T01:00:44.400Z,98011.94
2018-03-19T01:03:12.558Z,98006.03
2018-03-19T01:05:40.718Z,98010.23
2018-03-19T01:08:08.857Z,98005.98
2018-03-19T01:10:37.023Z,98007.97
2018-03-19T01:13:05.139Z,98001.97
2018-03-19T01:15:33.297Z,98002.25
2018-03-19T01:18:09.324Z,98000.00
2018-03-19T01:20:37.477Z,98001.86
2018-03-19T01:23:05.632Z,98002.19
2018-03-19T01:25:33.803Z,97996.98
2018-03-19T01:28:01.961Z,98001.65
2018-03-19T01:30:30.107Z,97998.83
2018-03-19T01:32:58.246Z,97994.70
2018-03-19T01:35:26.439Z,98000.32
2018-03-19T01:37:54.557Z,97997.34
2018-03-19T01:40:22.721Z,98001.34
2018-03-19T01:42:50.838Z,98005.72
2018-03-19T01:45:18.988Z,97992.89
2018-03-19T01:47:47.122Z,98005.05
2018-03-19T01:50:15.291Z,98000.86
2018-03-19T01:52:49.562Z,97997.33
2018-03-19T01:55:17.735Z,97993.31
2018-03-19T01:57:45.870Z,97991.06
2018-03-19T02:00:14.108Z,97991.78
2018-03-19T02:02:42.239Z,97992.53
2018-03-19T02:05:10.787Z,98005.08
2018-03-19T02:07:38.933Z,97992.53
2018-03-19T02:10:07.096Z,97994.25
2018-03-19T02:12:35.238Z,98001.10
2018-03-19T02:15:03.377Z,98001.10
2018-03-19T02:17:31.512Z,98002.95
2018-03-19T02:19:59.632Z,98008.98
2018-03-19T02:22:27.798Z,98002.63
2018-03-19T02:24:56.080Z,98002.63
2018-03-19T02:27:24.262Z,98015.02
2018-03-19T02:29:52.390Z,98001.27
2018-03-19T02:32:20.524Z,98001.24
2018-03-19T02:34:48.685Z,98009.17
2018-03-19T02:37:16.834Z,98009.33
2018-03-19T02:39:44.992Z,98001.36
2018-03-19T02:42:13.166Z,98005.92
2018-03-19T02:44:41.367Z,98010.80
2018-03-19T02:47:09.996Z,97968.84
2018-03-19T02:49:38.131Z,98002.45
2018-03-19T02:52:06.281Z,98003.13
2018-03-19T02:54:34.427Z,97998.73
2018-03-19T02:57:02.597Z,97995.31
2018-03-19T02:59:30.756Z,98004.33
2018-03-19T03:01:58.898Z,98003.73
2018-03-19T03:04:27.307Z,98009.61
2018-03-19T03:06:55.475Z,98002.09
2018-03-19T03:09:23.629Z,98009.69
2018-03-19T03:11:51.776Z,98006.02
2018-03-19T03:14:19.924Z,98009.45
2018-03-19T03:16:48.107Z,98011.85
2018-03-19T03:19:16.314Z,98014.79
2018-03-19T03:21:44.432Z,98013.86
2018-03-19T03:24:12.605Z,98020.25
2018-03-19T03:26:40.749Z,98016.84
2018-03-19T03:29:08.934Z,98023.59
2018-03-19T03:31:37.109Z,98016.63
2018-03-19T03:34:05.249Z,98010.03
2018-03-19T03:36:34.070Z,98008.39
2018-03-19T03:39:02.207Z,98007.64
2018-03-19T03:41:30.397Z,98010.75
2018-03-19T03:43:58.573Z,98005.97
2018-03-19T03:46:26.718Z,98002.14
2018-03-19T03:48:54.849Z,97995.71
2018-03-19T03:51:23.012Z,97998.42
2018-03-19T03:53:51.176Z,98002.28
2018-03-19T03:56:19.360Z,98002.77
2018-03-19T03:58:47.492Z,97988.56
2018-03-19T04:01:15.614Z,97989.57
2018-03-19T04:03:43.799Z,97993.61
2018-03-19T04:06:11.962Z,97986.03
2018-03-19T04:08:40.104Z,97982.47
2018-03-19T04:11:08.253Z,97983.36
2018-03-19T04:13:36.408Z,97982.43
2018-03-19T04:16:04.552Z,97979.63
2018-03-19T04:18:32.690Z,97977.95
2018-03-19T04:21:00.827Z,97978.49
2018-03-19T04:23:29.003Z,97974.40
2018-03-19T04:25:57.164Z,97979.00
2018-03-19T04:28:25.304Z,97977.48
2018-03-19T04:30:53.511Z,97987.75
2018-03-19T04:33:21.656Z,97986.64
2018-03-19T04:35:49.818Z,97988.94
2018-03-19T04:38:17.950Z,97991.39
2018-03-19T04:40:46.081Z,97996.13
2018-03-19T04:43:14.214Z,97997.16
2018-03-19T04:45:42.346Z,97995.97
2018-03-19T04:48:10.514Z,97993.14
2018-03-19T04:50:38.676Z,97997.13
2018-03-19T04:53:06.896Z,97993.15
2018-03-19T04:55:35.084Z,97994.38
2018-03-19T04:58:03.244Z,98000.14
2018-03-19T05:00:31.376Z,97998.98
2018-03-19T05:02:59.554Z,97994.71
2018-03-19T05:05:27.710Z,97997.61
2018-03-19T05:07:56.177Z,98003.04
2018-03-19T05:10:24.367Z,98002.48
2018-03-19T05:12:52.539Z,98016.05
2018-03-19T05:15:20.692Z,98005.56
2018-03-19T05:17:48.837Z,98015.19
2018-03-19T05:20:16.992Z,98015.45
2018-03-19T05:22:45.150Z,98011.03
2018-03-19T05:25:13.324Z,98011.28
2018-03-19T05:27:41.469Z,98011.06
2018-03-19T05:30:09.606Z,98015.19
2018-03-19T05:32:37.753Z,98021.80
2018-03-19T05:35:05.993Z,98022.56
2018-03-19T05:37:34.203Z,98017.20
2018-03-19T05:40:02.333Z,98024.16
2018-03-19T05:42:30.470Z,98021.38
2018-03-19T05:44:58.622Z,98020.52
2018-03-19T05:47:26.781Z,98024.12
2018-03-19T05:49:55.019Z,98024.58
2018-03-19T05:52:23.133Z,98030.59
2018-03-19T05:54:51.371Z,98034.03
2018-03-19T05:57:19.500Z,98038.15
2018-03-19T05:59:47.662Z,98035.59
2018-03-19T06:02:15.798Z,98031.05
2018-03-19T06:04:43.942Z,98033.39
2018-03-19T06:07:12.114Z,98036.59
2018-03-19T06:09:40.260Z,98033.06
2018-03-19T06:12:08.404Z,98038.53
2018-03-19T06:14:36.547Z,98038.56
2018-03-19T06:17:04.684Z,98039.72
2018-03-19T06:19:32.831Z,98040.67
2018-03-19T06:22:01.125Z,98050.95
2018-03-19T06:24:29.261Z,98054.12
2018-03-19T06:26:57.396Z,98056.27
2018-03-19T06:29:25.599Z,98055.05
2018-03-19T06:31:53.731Z,98059.00
2018-03-19T06:34:21.868Z,98056.50
2018-03-19T06:36:50.002Z,98055.94
2018-03-19T06:39:18.166Z,98063.05
2018-03-19T06:41:46.327Z,98055.53
2018-03-19T06:44:14.485Z,98060.23
2018-03-19T06:46:42.715Z,98062.16
2018-03-19T06:49:10.899Z,98054.94
2018-03-19T06:51:39.053Z,98057.05
2018-03-19T06:54:07.467Z,98056.09
2018-03-19T06:56:35.953Z,98064.33
2018-03-19T06:59:04.134Z,98056.07
2018-03-19T07:01:32.261Z,98061.30
2018-03-19T07:04:00.408Z,98066.70
2018-03-19T07:06:28.607Z,98076.18
2018-03-19T07:08:56.717Z,98074.90
2018-03-19T07:11:24.897Z,98073.77
2018-03-19T07:13:53.157Z,98074.81
2018-03-19T07:16:21.296Z,98080.30
2018-03-19T07:18:49.439Z,98079.77
2018-03-19T07:21:17.584Z,98075.42
2018-03-19T07:23:45.714Z,98071.52
2018-03-19T07:26:13.874Z,98071.20
2018-03-19T07:28:42.017Z,98070.94
2018-03-19T07:31:10.313Z,98075.37
2018-03-19T07:33:38.897Z,98064.66
2018-03-19T07:36:07.051Z,98068.52
2018-03-19T07:38:35.201Z,98067.82
2018-03-19T07:41:03.408Z,98070.30
2018-03-19T07:43:31.560Z,98064.64
2018-03-19T07:45:59.708Z,98072.46
2018-03-19T07:48:29.524Z,98064.36
2018-03-19T07:50:57.680Z,98070.48
2018-03-19T07:53:25.818Z,98070.55
2018-03-19T07:55:54.018Z,98071.81
2018-03-19T07:58:22.139Z,98066.72
2018-03-19T08:00:50.385Z,98077.22
2018-03-19T08:03:18.519Z,98065.69
2018-03-19T08:05:46.688Z,98070.98
2018-03-19T08:08:14.827Z,98063.78
2018-03-19T08:10:42.985Z,98068.98
2018-03-19T08:13:11.136Z,98068.18
2018-03-19T08:15:39.280Z,98067.36
2018-03-19T08:18:07.584Z,98075.39
2018-03-19T08:20:35.731Z,98075.23
2018-03-19T08:23:03.877Z,98072.17
2018-03-19T08:25:32.060Z,98079.98
2018-03-19T08:28:00.191Z,98071.94
2018-03-19T08:30:28.378Z,98079.19
2018-03-19T08:32:56.503Z,98077.80
2018-03-19T08:35:24.645Z,98081.35
2018-03-19T08:37:52.953Z,98081.20
2018-03-19T08:40:21.103Z,98082.18
2018-03-19T08:42:49.250Z,98078.19
2018-03-19T08:45:17.415Z,98073.25
2018-03-19T08:47:45.563Z,98078.41
2018-03-19T08:50:13.768Z,98076.59
2018-03-19T08:52:41.905Z,98082.76
2018-03-19T08:55:10.169Z,98083.95
2018-03-19T08:57:38.383Z,98083.83
2018-03-19T09:00:06.533Z,98085.80
2018-03-19T09:02:34.700Z,98077.64
2018-03-19T09:05:02.853Z,98081.25
2018-03-19T09:07:31.012Z,98078.80
2018-03-19T09:09:59.179Z,98077.41
2018-03-19T09:12:27.327Z,98073.66
2018-03-19T09:14:55.497Z,98078.41
2018-03-19T09:17:23.646Z,98078.42
2018-03-19T09:19:51.835Z,98076.17
2018-03-19T09:22:20.000Z,98082.69
2018-03-19T09:24:48.137Z,98076.31
2018-03-19T09:27:16.292Z,98077.38
2018-03-19T09:29:44.463Z,98076.61
2018-03-19T09:32:12.616Z,98077.66
2018-03-19T09:34:40.830Z,98086.16
2018-03-19T09:37:08.971Z,98084.68
2018-03-19T09:39:37.132Z,98086.34
2018-03-19T09:42:05.267Z,98076.84
2018-03-19T09:44:33.487Z,98068.44
2018-03-19T09:47:01.665Z,98076.28
2018-03-19T09:49:29.810Z,98072.34
2018-03-19T09:51:57.931Z,98071.28
2018-03-19T09:54:26.068Z,98071.91
2018-03-19T09:56:54.222Z,98072.39
2018-03-19T09:59:22.374Z,98073.59
2018-03-19T10:01:50.516Z,98084.67
2018-03-19T10:04:18.648Z,98078.78
2018-03-19T10:06:46.813Z,98077.38
2018-03-19T10:09:14.993Z,98083.32
2018-03-19T10:11:43.373Z,98078.06
2018-03-19T10:14:11.533Z,98080.17
2018-03-19T10:16:39.661Z,98079.91
2018-03-19T10:19:07.862Z,98081.92
2018-03-19T10:21:36.072Z,98073.58
2018-03-19T10:24:04.233Z,98075.27
2018-03-19T10:26:32.422Z,98075.56
2018-03-19T10:29:00.565Z,98069.74
2018-03-19T10:31:28.761Z,98067.95
2018-03-19T10:33:56.907Z,98062.34
2018-03-19T10:36:25.049Z,98064.80
2018-03-19T10:38:53.173Z,98065.20
2018-03-19T10:41:21.334Z,98056.34
2018-03-19T10:43:49.475Z,98053.91
2018-03-19T10:46:18.185Z,98060.29
2018-03-19T10:48:46.376Z,98061.38
2018-03-19T10:51:14.550Z,98058.81
2018-03-19T10:53:42.740Z,98051.78
2018-03-19T10:56:10.881Z,98056.22
2018-03-19T10:58:39.137Z,98056.66
2018-03-19T11:01:13.062Z,98053.88
2018-03-19T11:03:41.206Z,98051.66
2018-03-19T11:06:15.028Z,98054.08
2018-03-19T11:08:47.148Z,98047.89
2018-03-19T11:11:15.308Z,98056.84
2018-03-19T11:13:44.325Z,98048.66
2018-03-19T11:16:12.473Z,98057.79
2018-03-19T11:18:40.619Z,98050.14
2018-03-19T11:21:08.771Z,98051.70
2018-03-19T11:23:36.934Z,98049.91
2018-03-19T11:26:05.097Z,98050.85
2018-03-19T11:28:33.266Z,98049.50
2018-03-19T11:31:01.356Z,98048.77
2018-03-19T11:33:29.522Z,98046.03
2018-03-19T11:35:57.678Z,98046.90
2018-03-19T11:38:25.832Z,98047.39
2018-03-19T11:40:53.975Z,98036.97
2018-03-19T11:43:22.105Z,98045.67
2018-03-19T11:45:50.254Z,98041.24
2018-03-19T11:48:18.453Z,98038.89
2018-03-19T11:50:46.612Z,98029.05
2018-03-19T11:53:14.758Z,98035.58
2018-03-19T11:55:42.904Z,98028.69
2018-03-19T11:58:11.052Z,98028.19
2018-03-19T12:00:39.174Z,98027.02
2018-03-19T12:03:07.388Z,98015.70
2018-03-19T12:05:35.538Z,98013.23
2018-03-19T12:08:03.661Z,98017.48
2018-03-19T12:10:31.783Z,98014.15
2018-03-19T12:12:59.933Z,98009.73
2018-03-19T12:15:28.068Z,98004.93
2018-03-19T12:17:56.202Z,98002.72
2018-03-19T12:20:24.332Z,98002.64
2018-03-19T12:22:52.476Z,98001.69
2018-03-19T12:25:20.680Z,98002.94
2018-03-19T12:27:48.842Z,98004.25
2018-03-19T12:30:16.963Z,97996.70
2018-03-19T12:32:45.097Z,97992.86
2018-03-19T12:35:13.288Z,97986.60
2018-03-19T12:37:42.407Z,97995.30
2018-03-19T12:40:10.557Z,97991.96
2018-03-19T12:42:38.892Z,97987.72
2018-03-19T12:45:07.066Z,97990.34
2018-03-19T12:47:35.176Z,97990.44
2018-03-19T12:50:03.312Z,97992.46
2018-03-19T12:52:31.437Z,97993.67
2018-03-19T12:54:59.578Z,97992.86
2018-03-19T12:57:27.737Z,97987.48
2018-03-19T12:59:55.910Z,97986.91
2018-03-19T13:02:24.039Z,97985.30
2018-03-19T13:04:52.336Z,97986.41
2018-03-19T13:07:20.887Z,97984.28
2018-03-19T13:09:49.019Z,97983.37
2018-03-19T13:12:17.215Z,97976.97
2018-03-19T13:14:45.364Z,97981.95
2018-03-19T13:17:13.519Z,97987.02
2018-03-19T13:19:41.748Z,97993.05
2018-03-19T13:22:09.885Z,97988.41
2018-03-19T13:24:38.055Z,97982.05
2018-03-19T13:27:06.371Z,97975.07
2018-03-19T13:29:34.499Z,97992.64
2018-03-19T13:32:02.627Z,97994.33
2018-03-19T13:34:30.843Z,97992.36
2018-03-19T13:36:59.277Z,97994.00
2018-03-19T13:39:27.421Z,97995.41
2018-03-19T13:41:55.651Z,97992.34
2018-03-19T13:44:23.800Z,97996.05
2018-03-19T13:46:51.971Z,97997.77
2018-03-19T13:49:20.156Z,97996.56
2018-03-19T13:51:48.297Z,97997.84
2018-03-19T13:54:16.439Z,97990.77
2018-03-19T13:56:44.631Z,97995.13
2018-03-19T13:59:12.817Z,97990.69
2018-03-19T14:01:40.976Z,97990.08
2018-03-19T14:04:09.135Z,97988.84
2018-03-19T14:06:37.327Z,97989.02
2018-03-19T14:09:06.363Z,97982.55
2018-03-19T14:11:34.520Z,97991.03
2018-03-19T14:14:02.783Z,97989.10
2018-03-19T14:16:30.928Z,97989.62
2018-03-19T14:18:59.065Z,97986.32
2018-03-19T14:21:27.249Z,97986.18
2018-03-19T14:23:55.419Z,97993.55
2018-03-19T14:26:23.559Z,97981.34
2018-03-19T14:28:51.743Z,97983.75
2018-03-19T14:31:20.422Z,97989.50
2018-03-19T14:33:48.654Z,97978.40
2018-03-19T14:36:17.440Z,97979.97
2018-03-19T14:38:45.733Z,97981.06
2018-03-19T14:41:13.932Z,97986.30
2018-03-19T14:43:42.048Z,97980.91
2018-03-19T14:46:10.775Z,97989.17
2018-03-19T14:48:39.095Z,97986.47
2018-03-19T14:51:07.995Z,97989.16
2018-03-19T14:53:36.148Z,97988.87
2018-03-19T14:56:04.311Z,97990.29
2018-03-19T14:58:32.458Z,97996.73
2018-03-19T15:01:00.737Z,97989.97
2018-03-19T15:03:28.945Z,97985.14
2018-03-19T15:05:57.091Z,97992.59
2018-03-19T15:08:25.245Z,97993.27
2018-03-19T15:10:53.746Z,97997.77
2018-03-19T15:13:21.920Z,97994.35
2018-03-19T15:15:50.077Z,97993.56
2018-03-19T15:18:18.264Z,97995.47
2018-03-19T15:20:46.438Z,97998.03
2018-03-19T15:23:14.592Z,98001.23
2018-03-19T15:25:42.777Z,98000.06
2018-03-19T15:28:10.906Z,97996.02
2018-03-19T15:30:39.083Z,98000.70
2018-03-19T15:33:07.331Z,98006.83
2018-03-19T15:35:35.478Z,98008.29
2018-03-19T15:38:03.623Z,98008.58
2018-03-19T15:40:31.800Z,98008.49
2018-03-19T15:43:00.900Z,98017.31
2018-03-19T15:45:29.064Z,98007.03
2018-03-19T15:47:57.244Z,98011.02
2018-03-19T15:50:25.417Z,98007.27
2018-03-19T15:52:53.541Z,97999.06
2018-03-19T15:55:21.761Z,98007.06
2018-03-19T15:57:50.021Z,98014.52
2018-03-19T16:00:18.159Z,98006.89
2018-03-19T16:02:46.335Z,98013.97
2018-03-19T16:05:14.491Z,98017.45
2018-03-19T16:07:42.627Z,98020.04
2018-03-19T16:10:10.878Z,98017.10
2018-03-19T16:12:39.062Z,98030.56
2018-03-19T16:15:07.295Z,98035.51
2018-03-19T16:17:35.451Z,98037.92
2018-03-19T16:20:03.587Z,98038.13
2018-03-19T16:22:31.717Z,98033.80
2018-03-19T16:25:00.788Z,98034.73
2018-03-19T16:27:28.987Z,98034.70
2018-03-19T16:29:57.148Z,98034.21
2018-03-19T16:32:25.304Z,98038.45
2018-03-19T16:34:53.457Z,98038.75
2018-03-19T16:37:21.596Z,98035.84
2018-03-19T16:39:49.779Z,98041.56
2018-03-19T16:42:17.931Z,98041.98
2018-03-19T16:44:46.067Z,98046.80
2018-03-19T16:47:14.243Z,98045.98
2018-03-19T16:49:42.434Z,98057.84
2018-03-19T16:52:10.583Z,98056.60
2018-03-19T16:54:39.066Z,98060.24
2018-03-19T16:57:07.299Z,98063.47
2018-03-19T16:59:35.435Z,98059.00
2018-03-19T17:02:03.649Z,98061.22
2018-03-19T17:04:31.820Z,98069.26
2018-03-19T17:06:59.973Z,98071.91
2018-03-19T17:09:28.153Z,98070.69
2018-03-19T17:11:56.309Z,98077.91
2018-03-19T17:14:24.497Z,98070.39
2018-03-19T17:16:52.673Z,98079.80
2018-03-19T17:19:21.381Z,98084.02
2018-03-19T17:21:49.585Z,98081.20
2018-03-19T17:24:17.998Z,98088.58
2018-03-19T17:26:46.121Z,98092.78
2018-03-19T17:29:14.825Z,98084.13
2018-03-19T17:31:43.677Z,98093.15
2018-03-19T17:34:11.805Z,98104.39
2018-03-19T17:36:39.963Z,98109.21
2018-03-19T17:39:08.123Z,98109.07
2018-03-19T17:41:36.302Z,98102.77
2018-03-19T17:44:04.478Z,98108.63
2018-03-19T17:46:32.646Z,98118.09
2018-03-19T17:49:00.808Z,98119.19
2018-03-19T17:51:28.987Z,98123.47
2018-03-19T17:53:57.671Z,98126.79
2018-03-19T17:56:25.859Z,98121.29
2018-03-19T17:58:54.040Z,98124.75
2018-03-19T18:01:22.479Z,98121.73
2018-03-19T18:03:50.598Z,98121.30
2018-03-19T18:06:18.790Z,98129.48
2018-03-19T18:08:46.967Z,98129.62
2018-03-19T18:11:15.119Z,98128.56
2018-03-19T18:13:43.273Z,98131.05
2018-03-19T18:16:11.461Z,98130.08
2018-03-19T18:18:39.643Z,98142.03
2018-03-19T18:21:07.912Z,98135.88
2018-03-19T18:23:36.091Z,98133.10
2018-03-19T18:26:04.237Z,98135.80
2018-03-19T18:28:32.436Z,98137.87
2018-03-19T18:31:00.592Z,98141.86
2018-03-19T18:33:28.750Z,98141.86
2018-03-19T18:35:56.992Z,98139.55
2018-03-19T18:38:25.118Z,98143.69
2018-03-19T18:40:53.259Z,98141.81
2018-03-19T18:43:21.399Z,98147.83
2018-03-19T18:45:49.567Z,98147.33
2018-03-19T18:48:17.716Z,98151.98
2018-03-19T18:50:45.852Z,98147.17
2018-03-19T18:53:14.118Z,98144.28
2018-03-19T18:55:43.051Z,98145.54
2018-03-19T18:58:11.246Z,98151.75
2018-03-19T19:00:39.436Z,98151.26
2018-03-19T19:03:07.644Z,98148.86
2018-03-19T19:05:35.774Z,98152.29
2018-03-19T19:08:03.989Z,98153.33
2018-03-19T19:10:32.152Z,98146.74
2018-03-19T19:13:00.290Z,98148.62
2018-03-19T19:15:28.431Z,98154.91
2018-03-19T19:17:56.597Z,98149.36
2018-03-19T19:20:24.740Z,98156.52
2018-03-19T19:22:52.926Z,98154.85
2018-03-19T19:25:21.078Z,98157.44
2018-03-19T19:27:49.248Z,98155.37
2018-03-19T19:30:17.762Z,98151.20
2018-03-19T19:32:45.907Z,98152.12
2018-03-19T19:35:14.044Z,98155.75
2018-03-19T19:37:42.216Z,98154.34
2018-03-19T19:40:10.375Z,98151.83
2018-03-19T19:42:38.499Z,98150.63
2018-03-19T19:45:06.761Z,98153.19
2018-03-19T19:47:35.079Z,98155.02
2018-03-19T19:50:03.392Z,98153.38
2018-03-19T19:52:31.563Z,98152.80
2018-03-19T19:54:59.708Z,98156.13
2018-03-19T19:57:27.866Z,98152.40
2018-03-19T19:59:56.021Z,98154.47
2018-03-19T20:02:24.171Z,98159.17
2018-03-19T20:04:52.317Z,98151.17
2018-03-19T20:07:20.617Z,98156.80
2018-03-19T20:09:48.780Z,98152.20
2018-03-19T20:12:16.897Z,98146.83
2018-03-19T20:14:45.068Z,98153.58
2018-03-19T20:17:13.230Z,98148.27
2018-03-19T20:19:41.403Z,98145.38
2018-03-19T20:22:09.564Z,98150.52
2018-03-19T20:24:37.693Z,98150.74
2018-03-19T20:27:05.924Z,98145.68
2018-03-19T20:29:34.090Z,98152.62
2018-03-19T20:32:02.224Z,98149.03
2018-03-19T20:34:30.403Z,98149.05
2018-03-19T20:36:58.571Z,98152.89
2018-03-19T20:39:26.714Z,98155.02
2018-03-19T20:41:54.869Z,98147.50
2018-03-19T20:44:23.008Z,98151.72
2018-03-19T20:46:51.161Z,98149.44
2018-03-19T20:49:19.312Z,98156.78
2018-03-19T20:51:47.606Z,98152.53
2018-03-19T20:54:15.767Z,98155.64
2018-03-19T20:56:43.931Z,98158.25
2018-03-19T20:59:12.081Z,98157.90
2018-03-19T21:01:40.224Z,98156.37
2018-03-19T21:04:08.376Z,98148.48
2018-03-19T21:06:36.529Z,98150.55
2018-03-19T21:09:05.577Z,98144.02
2018-03-19T21:11:33.757Z,98149.44
2018-03-19T21:14:01.895Z,98148.62
2018-03-19T21:16:30.051Z,98145.81
2018-03-19T21:18:58.179Z,98140.43
2018-03-19T21:21:26.316Z,98150.55
2018-03-19T21:23:54.453Z,98145.46
2018-03-19T21:26:22.591Z,98147.47
2018-03-19T21:28:50.741Z,98141.89
2018-03-19T21:31:18.867Z,98145.97
2018-03-19T21:33:47.054Z,98147.28
2018-03-19T21:36:15.287Z,98144.37
2018-03-19T21:38:43.646Z,98146.98
2018-03-19T21:41:11.773Z,98146.22
2018-03-19T21:43:39.915Z,98139.36
2018-03-19T21:46:08.072Z,98138.05
2018-03-19T21:48:36.207Z,98140.34
2018-03-19T21:51:04.369Z,98148.04
2018-03-19T21:53:32.504Z,98136.55
2018-03-19T21:56:00.624Z,98141.30
2018-03-19T21:58:28.788Z,98139.25
2018-03-19T22:00:56.906Z,98142.92
2018-03-19T22:03:25.048Z,98141.30
2018-03-19T22:05:53.177Z,98138.05
2018-03-19T22:08:21.345Z,98144.58
2018-03-19T22:10:49.531Z,98147.08
2018-03-19T22:13:17.665Z,98140.17
2018-03-19T22:15:45.805Z,98135.52
2018-03-19T22:18:13.952Z,98139.57
2018-03-19T22:20:42.093Z,98149.61
2018-03-19T22:23:10.578Z,98136.14
2018-03-19T22:25:38.704Z,98139.08
2018-03-19T22:28:06.846Z,98131.73
2018-03-19T22:30:34.962Z,98131.47
2018-03-19T22:33:03.132Z,98130.57
2018-03-19T22:35:31.285Z,98130.78
2018-03-19T22:37:59.413Z,98130.30
2018-03-19T22:40:27.553Z,98134.84
2018-03-19T22:42:55.700Z,98132.78
2018-03-19T22:45:23.877Z,98127.88
2018-03-19T22:47:52.004Z,98127.91
2018-03-19T22:50:20.165Z,98131.66
2018-03-19T22:52:48.277Z,98128.56
2018-03-19T22:55:17.149Z,98135.72
2018-03-19T22:57:45.345Z,98124.78
2018-03-19T23:00:13.482Z,98128.78
2018-03-19T23:02:41.625Z,98127.66
2018-03-19T23:05:25.736Z,98120.31
2018-03-19T23:07:53.884Z,98125.70
2018-03-19T23:10:22.008Z,98118.63
2018-03-19T23:12:50.146Z,98120.94
2018-03-19T23:15:18.280Z,98121.73
2018-03-19T23:17:46.518Z,98117.02
2018-03-19T23:20:14.669Z,98125.75
2018-03-19T23:22:42.811Z,98126.24
2018-03-19T23:25:10.954Z,98117.19
2018-03-19T23:27:39.067Z,98118.90
2018-03-19T23:30:07.230Z,98120.05
2018-03-19T23:32:35.409Z,98127.28
2018-03-19T23:35:06.649Z,98127.88
2018-03-19T23:37:34.788Z,98132.83
2018-03-19T23:40:02.950Z,98127.50
2018-03-19T23:42:31.183Z,98129.73
2018-03-19T23:44:59.339Z,98127.01
2018-03-19T23:47:27.507Z,98127.12
2018-03-19T23:49:55.692Z,98122.60
2018-03-19T23:52:23.856Z,98132.91
2018-03-19T23:54:51.984Z,98132.91
2018-03-19T23:57:23.531Z,98132.42
2018-03-19T23:59:51.651Z,98128.45
